createdAt,value
2022-10-29T00:00:57.247Z,15.25
2022-10-29T00:03:25.279Z,15.18
2022-10-29T00:06:04.450Z,15.36
2022-10-29T00:08:34.805Z,15.38
2022-10-29T00:11:20.365Z,15.41
2022-10-29T00:13:52.552Z,15.34
2022-10-29T00:16:23.131Z,15.32
2022-10-29T00:18:50.023Z,15.27
2022-10-29T00:21:20.192Z,15.31
2022-10-29T00:23:48.098Z,15.30
2022-10-29T00:26:15.903Z,15.30
2022-10-29T00:28:42.908Z,15.25
2022-10-29T00:31:15.912Z,15.14
2022-10-29T00:33:43.342Z,15.16
2022-10-29T00:36:16.085Z,15.23
2022-10-29T00:38:43.480Z,15.22
2022-10-29T00:41:16.531Z,15.22
2022-10-29T00:44:15.347Z,15.24
2022-10-29T00:46:47.275Z,15.28
2022-10-29T00:49:15.675Z,15.31
2022-10-29T00:51:42.827Z,15.37
2022-10-29T00:54:12.898Z,15.39
2022-10-29T00:57:13.693Z,15.41
2022-10-29T00:59:42.656Z,15.42
2022-10-29T01:02:10.544Z,15.47
2022-10-29T01:04:38.968Z,15.47
2022-10-29T01:07:06.471Z,15.44
2022-10-29T01:09:33.377Z,15.36
2022-10-29T01:12:21.517Z,15.30
2022-10-29T01:15:07.095Z,15.22
2022-10-29T01:18:07.544Z,15.03
2022-10-29T01:21:14.365Z,14.87
2022-10-29T01:24:37.155Z,14.77
2022-10-29T01:27:26.452Z,14.77
2022-10-29T01:30:21.447Z,14.83
2022-10-29T01:32:54.169Z,14.82
2022-10-29T01:35:30.228Z,14.82
2022-10-29T01:38:11.454Z,14.74
2022-10-29T01:41:15.034Z,14.64
2022-10-29T01:43:52.104Z,14.55
2022-10-29T01:46:42.589Z,14.54
2022-10-29T01:49:22.705Z,14.52
2022-10-29T01:51:50.959Z,14.46
2022-10-29T01:54:17.764Z,14.46
2022-10-29T01:56:52.660Z,14.47
2022-10-29T01:59:35.227Z,14.43
2022-10-29T02:02:39.552Z,14.42
2022-10-29T02:05:44.722Z,14.36
2022-10-29T02:08:20.206Z,14.36
2022-10-29T02:11:23.842Z,14.39
2022-10-29T02:14:07.353Z,14.41
2022-10-29T02:16:34.831Z,14.51
2022-10-29T02:19:02.082Z,14.51
2022-10-29T02:21:28.850Z,14.50
2022-10-29T02:23:55.700Z,14.52
2022-10-29T02:26:22.583Z,14.52
2022-10-29T02:28:49.428Z,14.53
2022-10-29T02:31:16.250Z,14.58
2022-10-29T02:33:43.042Z,14.57
2022-10-29T02:36:09.951Z,14.43
2022-10-29T02:38:36.751Z,14.26
2022-10-29T02:41:03.536Z,14.19
2022-10-29T02:43:30.327Z,14.20
2022-10-29T02:46:19.160Z,14.22
2022-10-29T02:48:46.400Z,14.25
2022-10-29T02:51:13.543Z,14.20
2022-10-29T02:53:40.645Z,14.20
2022-10-29T02:56:07.944Z,14.22
2022-10-29T02:58:34.876Z,14.29
2022-10-29T03:01:02.189Z,14.33
2022-10-29T03:03:29.503Z,14.29
2022-10-29T03:05:56.292Z,14.33
2022-10-29T03:08:23.138Z,14.28
2022-10-29T03:10:49.928Z,14.19
2022-10-29T03:13:17.914Z,14.29
2022-10-29T03:15:46.234Z,14.21
2022-10-29T03:18:13.065Z,14.17
2022-10-29T03:20:39.951Z,14.05
2022-10-29T03:23:06.779Z,13.91
2022-10-29T03:25:33.607Z,13.92
2022-10-29T03:28:00.371Z,14.01
2022-10-29T03:30:27.198Z,14.03
2022-10-29T03:32:54.394Z,13.97
2022-10-29T03:35:21.715Z,13.98
2022-10-29T03:37:52.464Z,14.09
2022-10-29T03:40:20.282Z,14.15
2022-10-29T03:42:47.068Z,14.08
2022-10-29T03:45:14.213Z,14.02
2022-10-29T03:47:41.063Z,14.00
2022-10-29T03:50:08.887Z,14.11
2022-10-29T03:52:35.997Z,14.21
2022-10-29T03:55:03.283Z,14.16
2022-10-29T03:57:30.102Z,13.98
2022-10-29T03:59:56.936Z,13.98
2022-10-29T04:02:24.789Z,14.00
2022-10-29T04:04:51.627Z,14.16
2022-10-29T04:07:18.825Z,14.29
2022-10-29T04:09:45.665Z,14.42
2022-10-29T04:12:12.423Z,14.53
2022-10-29T04:14:44.473Z,14.61
2022-10-29T04:17:12.722Z,14.74
2022-10-29T04:19:40.449Z,14.83
2022-10-29T04:30:27.874Z,14.44
2022-10-29T04:32:59.578Z,14.51
2022-10-29T04:35:28.858Z,14.56
2022-10-29T04:37:55.790Z,14.58
2022-10-29T04:40:24.757Z,14.58
2022-10-29T04:42:51.586Z,14.58
2022-10-29T04:45:18.756Z,14.55
2022-10-29T04:47:45.958Z,14.50
2022-10-29T04:50:12.786Z,14.42
2022-10-29T04:52:39.630Z,14.34
2022-10-29T04:55:06.804Z,14.29
2022-10-29T04:57:33.617Z,14.30
2022-10-29T05:00:00.428Z,14.21
2022-10-29T05:02:27.219Z,14.23
2022-10-29T05:04:54.007Z,14.29
2022-10-29T05:07:20.767Z,14.35
2022-10-29T05:09:47.572Z,14.47
2022-10-29T05:12:14.357Z,14.50
2022-10-29T05:14:41.136Z,14.59
2022-10-29T05:19:39.666Z,14.72
2022-10-29T05:22:06.450Z,14.77
2022-10-29T05:24:33.217Z,14.77
2022-10-29T05:27:00.088Z,14.79
2022-10-29T05:29:26.891Z,14.85
2022-10-29T05:31:54.587Z,14.92
2022-10-29T05:34:21.581Z,14.95
2022-10-29T05:36:48.603Z,14.97
2022-10-29T05:39:15.651Z,14.96
2022-10-29T05:41:42.432Z,14.97
2022-10-29T05:44:09.648Z,15.01
2022-10-29T05:46:36.514Z,14.99
2022-10-29T05:49:04.168Z,14.95
2022-10-29T05:51:31.029Z,14.89
2022-10-29T05:53:57.814Z,14.85
2022-10-29T05:56:24.607Z,14.84
2022-10-29T05:58:51.708Z,14.86
2022-10-29T06:01:19.846Z,14.86
2022-10-29T06:03:47.419Z,14.91
2022-10-29T06:06:14.312Z,14.92
2022-10-29T06:08:41.183Z,14.91
2022-10-29T06:11:08.145Z,14.88
2022-10-29T06:13:35.990Z,14.87
2022-10-29T06:16:03.042Z,14.87
2022-10-29T06:18:30.064Z,14.91
2022-10-29T06:21:00.548Z,14.96
2022-10-29T06:23:28.642Z,14.98
2022-10-29T06:25:55.459Z,15.10
2022-10-29T06:28:22.278Z,15.19
2022-10-29T06:30:50.432Z,15.20
2022-10-29T06:33:18.677Z,15.18
2022-10-29T06:35:45.999Z,15.19
2022-10-29T06:38:13.244Z,15.20
2022-10-29T06:40:41.595Z,15.18
2022-10-29T06:43:11.747Z,15.22
2022-10-29T06:45:38.679Z,15.20
2022-10-29T06:48:06.084Z,15.31
2022-10-29T06:50:33.034Z,15.47
2022-10-29T06:53:02.764Z,15.58
2022-10-29T06:55:30.164Z,15.65
2022-10-29T06:58:02.106Z,15.76
2022-10-29T07:00:30.284Z,15.85
2022-10-29T07:02:58.028Z,15.89
2022-10-29T07:05:26.419Z,15.90
2022-10-29T07:07:58.405Z,16.07
2022-10-29T07:10:28.956Z,16.28
2022-10-29T07:12:56.147Z,16.55
2022-10-29T07:15:27.233Z,16.81
2022-10-29T07:18:06.064Z,17.10
2022-10-29T07:20:36.512Z,17.47
2022-10-29T07:23:03.288Z,17.70
2022-10-29T07:25:31.882Z,17.92
2022-10-29T07:28:12.278Z,17.98
2022-10-29T07:30:40.135Z,17.95
2022-10-29T07:33:07.128Z,17.93
2022-10-29T07:35:34.860Z,17.89
2022-10-29T07:38:08.784Z,17.88
2022-10-29T07:40:38.907Z,17.79
2022-10-29T07:43:05.950Z,17.80
2022-10-29T07:45:33.713Z,17.83
2022-10-29T07:48:03.124Z,17.85
2022-10-29T07:50:31.520Z,17.92
2022-10-29T07:53:03.008Z,17.87
2022-10-29T07:58:07.956Z,17.95
2022-10-29T08:00:37.721Z,17.81
2022-10-29T08:03:05.111Z,17.79
2022-10-29T08:05:32.149Z,17.92
2022-10-29T08:08:00.043Z,18.04
2022-10-29T08:10:28.441Z,18.16
2022-10-29T08:12:58.943Z,18.18
2022-10-29T08:15:27.972Z,18.30
2022-10-29T08:17:55.280Z,18.43
2022-10-29T08:20:25.063Z,18.51
2022-10-29T08:22:51.925Z,18.58
2022-10-29T08:25:18.962Z,18.67
2022-10-29T08:27:45.876Z,18.81
2022-10-29T08:30:14.183Z,18.83
2022-10-29T08:32:47.511Z,18.76
2022-10-29T08:35:15.289Z,18.78
2022-10-29T08:37:44.287Z,18.95
2022-10-29T08:40:30.412Z,18.96
2022-10-29T08:43:34.572Z,19.14
2022-10-29T08:46:01.705Z,19.04
2022-10-29T08:48:34.250Z,19.04
2022-10-29T08:51:30.455Z,19.15
2022-10-29T08:54:25.480Z,19.22
2022-10-29T08:56:54.144Z,19.39
2022-10-29T08:59:24.264Z,19.48
2022-10-29T09:01:53.655Z,19.69
2022-10-29T09:04:31.692Z,20.00
2022-10-29T09:07:26.048Z,20.08
2022-10-29T09:10:20.587Z,20.22
2022-10-29T09:13:25.960Z,20.28
2022-10-29T09:16:24.367Z,20.34
2022-10-29T09:19:03.491Z,20.49
2022-10-29T09:21:48.896Z,20.71
2022-10-29T09:24:30.653Z,20.93
2022-10-29T09:27:09.717Z,21.10
2022-10-29T09:30:03.353Z,21.32
2022-10-29T09:32:47.782Z,21.92
2022-10-29T09:35:19.282Z,22.82
2022-10-29T09:37:59.380Z,23.72
2022-10-29T09:40:34.342Z,24.56
2022-10-29T09:43:13.268Z,25.18
2022-10-29T09:45:48.811Z,25.53
2022-10-29T09:48:31.423Z,26.13
2022-10-29T09:51:11.210Z,26.30
2022-10-29T09:53:37.994Z,26.40
2022-10-29T09:56:08.376Z,26.69
2022-10-29T09:58:41.636Z,27.34
2022-10-29T10:01:08.589Z,27.54
2022-10-29T10:03:45.782Z,27.41
2022-10-29T10:06:16.190Z,27.97
2022-10-29T10:09:04.470Z,28.70
2022-10-29T10:11:40.042Z,29.03
2022-10-29T10:14:20.712Z,28.58
2022-10-29T10:17:00.435Z,29.33
2022-10-29T10:19:31.197Z,29.37
2022-10-29T10:22:04.529Z,30.27
2022-10-29T10:24:38.212Z,30.49
2022-10-29T10:27:20.169Z,31.34
2022-10-29T10:30:04.939Z,30.41
2022-10-29T10:32:32.407Z,29.75
2022-10-29T10:34:59.192Z,28.98
2022-10-29T10:37:26.090Z,29.86
2022-10-29T10:40:04.850Z,28.97
2022-10-29T10:42:37.131Z,29.93
2022-10-29T10:45:23.027Z,30.37
2022-10-29T10:47:57.427Z,30.66
2022-10-29T10:50:34.013Z,31.00
2022-10-29T10:53:05.970Z,31.80
2022-10-29T10:55:37.937Z,32.27
2022-10-29T10:58:42.939Z,32.41
2022-10-29T11:01:20.689Z,32.96
2022-10-29T11:03:52.017Z,33.02
2022-10-29T11:06:29.878Z,33.81
2022-10-29T11:09:35.929Z,32.68
2022-10-29T11:12:11.695Z,33.45
2022-10-29T11:14:49.009Z,33.87
2022-10-29T11:17:52.916Z,34.05
2022-10-29T11:20:35.681Z,33.84
2022-10-29T11:23:25.503Z,34.44
2022-10-29T11:26:08.175Z,35.19
2022-10-29T11:28:53.970Z,34.35
2022-10-29T11:31:31.087Z,32.11
2022-10-29T11:34:39.226Z,32.57
2022-10-29T11:37:27.770Z,33.83
2022-10-29T11:40:04.460Z,33.92
2022-10-29T11:42:31.399Z,32.16
2022-10-29T11:45:00.967Z,33.52
2022-10-29T11:47:39.660Z,32.48
2022-10-29T11:50:28.228Z,33.60
2022-10-29T11:53:02.576Z,34.72
2022-10-29T11:55:43.279Z,35.31
2022-10-29T11:58:37.974Z,35.98
2022-10-29T12:01:50.462Z,35.97
2022-10-29T12:04:32.843Z,36.76
2022-10-29T12:07:18.344Z,37.36
2022-10-29T12:10:30.419Z,38.01
2022-10-29T12:13:33.299Z,37.72
2022-10-29T12:16:33.834Z,38.83
2022-10-29T12:19:14.957Z,38.77
2022-10-29T12:22:32.134Z,38.57
2022-10-29T12:25:19.018Z,40.06
2022-10-29T12:28:00.895Z,39.74
2022-10-29T12:30:34.685Z,39.88
2022-10-29T12:33:42.073Z,40.00
2022-10-29T12:36:48.931Z,39.28
2022-10-29T12:39:45.555Z,40.65
2022-10-29T12:42:26.269Z,40.83
2022-10-29T12:45:26.149Z,40.80
2022-10-29T12:47:57.294Z,40.62
2022-10-29T12:51:05.653Z,41.06
2022-10-29T12:53:54.031Z,41.70
2022-10-29T12:56:22.883Z,41.20
2022-10-29T12:58:57.051Z,41.06
2022-10-29T13:01:50.017Z,42.12
2022-10-29T13:04:34.161Z,42.33
2022-10-29T13:07:05.174Z,42.75
2022-10-29T13:09:36.491Z,42.59
2022-10-29T13:12:12.358Z,42.56
2022-10-29T13:14:56.450Z,42.84
2022-10-29T13:17:33.077Z,42.48
2022-10-29T13:20:04.772Z,42.05
2022-10-29T13:22:57.130Z,41.94
2022-10-29T13:25:40.355Z,42.26
2022-10-29T13:28:10.053Z,41.69
2022-10-29T13:30:39.871Z,41.94
2022-10-29T13:33:21.926Z,41.62
2022-10-29T13:36:01.225Z,40.90
2022-10-29T13:39:19.476Z,41.09
2022-10-29T13:41:51.167Z,41.39
2022-10-29T13:44:29.068Z,41.43
2022-10-29T13:47:21.630Z,40.77
2022-10-29T13:49:49.489Z,40.38
2022-10-29T13:52:21.670Z,40.32
2022-10-29T13:55:03.033Z,39.86
2022-10-29T13:57:42.745Z,40.04
2022-10-29T14:00:12.114Z,40.18
2022-10-29T14:03:14.964Z,40.77
2022-10-29T14:05:56.084Z,39.98
2022-10-29T14:08:37.856Z,40.21
2022-10-29T14:11:18.225Z,39.49
2022-10-29T14:13:51.219Z,39.56
2022-10-29T14:16:21.969Z,38.61
2022-10-29T14:18:50.736Z,38.86
2022-10-29T14:21:37.864Z,37.41
2022-10-29T14:24:08.297Z,37.41
2022-10-29T14:26:39.653Z,36.63
2022-10-29T14:29:26.046Z,35.91
2022-10-29T14:32:20.077Z,34.70
2022-10-29T14:34:51.660Z,33.73
2022-10-29T14:37:33.498Z,33.10
2022-10-29T14:40:06.322Z,32.26
2022-10-29T14:42:43.088Z,32.50
2022-10-29T14:45:25.343Z,32.79
2022-10-29T14:47:58.327Z,33.46
2022-10-29T14:50:30.096Z,33.25
2022-10-29T14:53:02.054Z,32.03
2022-10-29T14:55:35.312Z,31.40
2022-10-29T14:58:28.650Z,30.23
2022-10-29T15:00:57.329Z,29.62
2022-10-29T15:03:27.288Z,29.14
2022-10-29T15:06:18.897Z,28.39
2022-10-29T15:08:58.152Z,27.96
2022-10-29T15:11:36.569Z,27.52
2022-10-29T15:14:23.736Z,27.07
2022-10-29T15:16:50.560Z,26.64
2022-10-29T15:19:18.104Z,26.37
2022-10-29T15:21:45.387Z,25.93
2022-10-29T15:24:20.753Z,25.66
2022-10-29T15:26:56.516Z,25.59
2022-10-29T15:29:32.206Z,25.41
2022-10-29T15:32:01.067Z,25.20
2022-10-29T15:34:37.558Z,24.93
2022-10-29T15:37:19.635Z,24.69
2022-10-29T15:40:09.501Z,24.46
2022-10-29T15:42:37.170Z,24.17
2022-10-29T15:45:15.685Z,23.98
2022-10-29T15:47:48.281Z,23.76
2022-10-29T15:50:26.495Z,23.55
2022-10-29T15:52:57.576Z,23.32
2022-10-29T15:55:34.401Z,23.05
2022-10-29T15:58:16.419Z,22.91
2022-10-29T16:00:43.794Z,22.71
2022-10-29T16:03:20.103Z,22.48
2022-10-29T16:06:05.623Z,22.19
2022-10-29T16:08:42.104Z,22.16
2022-10-29T16:11:14.455Z,21.95
2022-10-29T16:13:41.842Z,21.80
2022-10-29T16:16:25.509Z,21.73
2022-10-29T16:18:53.312Z,21.62
2022-10-29T16:21:24.255Z,21.67
2022-10-29T16:23:51.757Z,21.65
2022-10-29T16:26:22.829Z,21.64
2022-10-29T16:28:50.170Z,21.58
2022-10-29T16:31:26.175Z,21.53
2022-10-29T16:33:57.501Z,21.55
2022-10-29T16:36:24.940Z,21.48
2022-10-29T16:38:51.712Z,21.47
2022-10-29T16:41:20.119Z,21.51
2022-10-29T16:43:47.849Z,21.51
2022-10-29T16:46:15.441Z,21.50
2022-10-29T16:48:42.275Z,21.50
2022-10-29T16:51:09.233Z,21.38
2022-10-29T16:53:36.070Z,21.14
2022-10-29T16:56:03.460Z,21.14
2022-10-29T16:58:30.274Z,21.09
2022-10-29T17:01:05.832Z,21.00
2022-10-29T17:03:33.169Z,20.90
2022-10-29T17:06:10.645Z,20.79
2022-10-29T17:08:38.214Z,20.74
2022-10-29T17:11:08.724Z,20.69
2022-10-29T17:13:35.952Z,20.62
2022-10-29T17:16:14.616Z,20.59
2022-10-29T17:18:41.470Z,20.53
2022-10-29T17:21:08.278Z,20.45
2022-10-29T17:23:35.076Z,20.38
2022-10-29T17:26:02.243Z,20.32
2022-10-29T17:28:29.450Z,20.26
2022-10-29T17:30:56.247Z,20.15
2022-10-29T17:33:23.087Z,20.02
2022-10-29T17:35:49.892Z,19.91
2022-10-29T17:38:16.685Z,19.90
2022-10-29T17:40:46.096Z,19.84
2022-10-29T17:43:13.245Z,19.81
2022-10-29T17:45:42.115Z,19.80
2022-10-29T17:48:08.926Z,19.75
2022-10-29T17:50:36.236Z,19.69
2022-10-29T17:53:03.413Z,19.64
2022-10-29T17:55:30.480Z,19.56
2022-10-29T17:57:57.480Z,19.52
2022-10-29T18:00:25.330Z,19.53
2022-10-29T18:02:52.146Z,19.53
2022-10-29T18:05:19.462Z,19.53
2022-10-29T18:07:46.268Z,19.55
2022-10-29T18:10:13.112Z,19.50
2022-10-29T18:12:39.920Z,19.50
2022-10-29T18:15:07.392Z,19.43
2022-10-29T18:17:34.249Z,19.37
2022-10-29T18:20:01.123Z,19.36
2022-10-29T18:22:28.167Z,19.32
2022-10-29T18:24:54.983Z,19.27
2022-10-29T18:27:21.754Z,19.20
2022-10-29T18:29:48.624Z,19.09
2022-10-29T18:32:15.685Z,19.00
2022-10-29T18:34:42.507Z,18.95
2022-10-29T18:37:09.301Z,18.86
2022-10-29T18:39:36.135Z,18.80
2022-10-29T18:42:02.953Z,18.76
2022-10-29T18:44:29.831Z,18.74
2022-10-29T18:46:56.609Z,18.71
2022-10-29T18:49:23.557Z,18.64
2022-10-29T18:51:50.356Z,18.57
2022-10-29T18:54:17.250Z,18.52
2022-10-29T18:56:44.174Z,18.48
2022-10-29T18:59:15.541Z,18.40
2022-10-29T19:01:42.487Z,18.31
2022-10-29T19:04:14.023Z,18.34
2022-10-29T19:06:41.096Z,18.25
2022-10-29T19:09:10.728Z,18.21
2022-10-29T19:11:37.808Z,18.32
2022-10-29T19:14:08.023Z,18.22
2022-10-29T19:16:34.990Z,18.20
2022-10-29T19:21:39.090Z,18.07
2022-10-29T19:24:07.326Z,18.04
2022-10-29T19:26:35.899Z,18.08
2022-10-29T19:29:05.153Z,17.96
2022-10-29T19:31:34.708Z,17.84
2022-10-29T19:34:05.925Z,17.92
2022-10-29T19:36:34.823Z,18.03
2022-10-29T19:39:01.964Z,18.10
2022-10-29T19:41:29.314Z,18.12
2022-10-29T19:44:02.183Z,18.12
2022-10-29T19:46:29.943Z,18.19
2022-10-29T19:48:58.312Z,18.22
2022-10-29T19:51:25.175Z,18.22
2022-10-29T19:53:52.015Z,18.12
2022-10-29T19:56:20.526Z,18.05
2022-10-29T19:58:47.386Z,18.03
2022-10-29T20:01:17.119Z,18.02
2022-10-29T20:03:45.106Z,18.06
2022-10-29T20:06:12.306Z,18.04
2022-10-29T20:08:39.453Z,18.03
2022-10-29T20:11:06.677Z,18.08
2022-10-29T20:13:33.819Z,18.16
2022-10-29T20:16:06.147Z,18.19
2022-10-29T20:18:35.388Z,18.19
2022-10-29T20:21:02.285Z,18.14
2022-10-29T20:23:29.213Z,18.07
2022-10-29T20:25:56.000Z,18.03
2022-10-29T20:28:22.874Z,18.08
2022-10-29T20:30:49.706Z,18.06
2022-10-29T20:33:16.482Z,18.05
2022-10-29T20:35:43.285Z,17.99
2022-10-29T20:38:10.082Z,17.96
2022-10-29T20:40:37.054Z,17.97
2022-10-29T20:43:03.924Z,17.70
2022-10-29T20:45:30.789Z,17.93
2022-10-29T20:47:57.800Z,17.95
2022-10-29T20:50:24.840Z,17.92
2022-10-29T20:52:53.596Z,17.95
2022-10-29T20:55:20.448Z,17.90
2022-10-29T20:57:47.307Z,17.92
2022-10-29T21:00:14.591Z,17.91
2022-10-29T21:02:41.487Z,17.85
2022-10-29T21:05:08.856Z,17.74
2022-10-29T21:07:35.737Z,17.69
2022-10-29T21:10:02.520Z,17.62
2022-10-29T21:12:29.286Z,17.58
2022-10-29T21:14:56.076Z,17.52
2022-10-29T21:17:22.868Z,17.50
2022-10-29T21:19:49.741Z,17.46
2022-10-29T21:22:18.820Z,17.40
2022-10-29T21:24:46.111Z,17.37
2022-10-29T21:27:12.897Z,17.33
2022-10-29T21:29:39.745Z,17.30
2022-10-29T21:32:07.753Z,17.23
2022-10-29T21:34:36.009Z,17.20
2022-10-29T21:37:02.793Z,17.14
2022-10-29T21:39:29.846Z,17.15
2022-10-29T21:41:57.030Z,17.10
2022-10-29T21:44:23.804Z,16.89
2022-10-29T21:46:50.658Z,17.00
2022-10-29T21:49:17.455Z,16.98
2022-10-29T21:51:44.227Z,16.95
2022-10-29T21:54:11.040Z,16.89
2022-10-29T21:56:37.842Z,16.89
2022-10-29T21:59:04.602Z,16.82
2022-10-29T22:01:31.539Z,16.76
2022-10-29T22:03:58.427Z,16.71
2022-10-29T22:06:28.325Z,16.64
2022-10-29T22:08:58.577Z,16.50
2022-10-29T22:11:27.260Z,16.23
2022-10-29T22:13:54.944Z,16.22
2022-10-29T22:16:22.801Z,16.21
2022-10-29T22:18:50.893Z,16.18
2022-10-29T22:21:21.342Z,16.10
2022-10-29T22:23:51.571Z,16.13
2022-10-29T22:26:23.847Z,16.14
2022-10-29T22:28:50.698Z,16.09
2022-10-29T22:31:19.875Z,16.06
2022-10-29T22:33:47.328Z,16.01
2022-10-29T22:36:22.126Z,15.99
2022-10-29T22:38:57.530Z,15.98
2022-10-29T22:41:28.540Z,16.04
2022-10-29T22:43:58.787Z,16.02
2022-10-29T22:46:26.960Z,16.00
2022-10-29T22:48:53.927Z,15.95
2022-10-29T22:51:24.520Z,15.95
2022-10-29T22:53:52.768Z,15.95
2022-10-29T22:56:32.707Z,15.94
2022-10-29T22:58:59.992Z,15.90
2022-10-29T23:01:29.855Z,15.78
2022-10-29T23:03:58.664Z,15.69
2022-10-29T23:06:26.271Z,15.65
2022-10-29T23:08:56.711Z,15.52
2022-10-29T23:11:26.609Z,15.41
2022-10-29T23:14:03.598Z,15.59
2022-10-29T23:16:32.663Z,15.45
2022-10-29T23:19:02.642Z,15.40
2022-10-29T23:21:29.849Z,15.56
2022-10-29T23:23:57.758Z,15.37
2022-10-29T23:26:25.754Z,15.35
2022-10-29T23:28:52.550Z,15.32
2022-10-29T23:31:25.697Z,15.34
2022-10-29T23:33:55.071Z,15.33
2022-10-29T23:36:24.396Z,15.28
2022-10-29T23:38:59.867Z,15.33
2022-10-29T23:41:30.978Z,15.32
2022-10-29T23:43:58.338Z,15.33
2022-10-29T23:46:25.163Z,15.32
2022-10-29T23:48:51.985Z,15.32
2022-10-29T23:51:19.109Z,15.33
2022-10-29T23:53:45.972Z,15.28
2022-10-29T23:56:12.742Z,15.24
2022-10-29T23:58:39.507Z,15.23
